createdAt,value
2016-08-03T16:01:40.760Z,26.77
2016-08-03T16:01:57.711Z,26.76
2016-08-03T16:02:07.152Z,26.65
2016-08-03T16:02:17.151Z,26.66
2016-08-03T16:02:37.146Z,26.47
2016-08-03T16:02:47.138Z,26.5
2016-08-03T16:02:57.140Z,26.51
2016-08-03T16:03:07.135Z,26.62
2016-08-03T16:03:17.133Z,26.52
2016-08-03T16:03:27.129Z,26.47
2016-08-03T16:03:37.133Z,26.48
2016-08-03T16:03:47.129Z,26.36
2016-08-03T16:03:57.126Z,26.36
2016-08-03T16:04:07.125Z,26.35
2016-08-03T16:05:22.798Z,26.36
2016-08-03T16:05:32.795Z,26.21
2016-08-03T16:05:42.791Z,26.18
2016-08-03T16:05:52.061Z,26.17
2016-08-03T16:06:02.786Z,26.17
2016-08-03T16:06:12.782Z,26.15
2016-08-03T16:06:22.780Z,26.21
2016-08-03T16:06:32.780Z,26.15
2016-08-03T16:06:42.780Z,26.15
2016-08-03T16:06:52.774Z,26.12
2016-08-03T16:07:02.770Z,26.12
2016-08-03T16:07:12.773Z,26.09
2016-08-03T16:07:22.768Z,26.09
2016-08-03T16:07:32.761Z,26.12
2016-08-03T16:07:42.760Z,26.12
2016-08-03T16:07:52.031Z,25.95
2016-08-03T16:08:02.756Z,25.95
2016-08-03T16:08:12.755Z,26.01
2016-08-03T16:08:22.751Z,26.01
2016-08-03T16:08:32.747Z,25.95
2016-08-03T16:09:39.008Z,25.27
2016-08-03T16:09:49.005Z,25.2
2016-08-03T16:09:59.005Z,25.05
2016-08-03T16:10:09.306Z,25.06
2016-08-03T16:10:18.999Z,24.95
2016-08-03T16:10:28.996Z,24.85
2016-08-03T16:10:38.994Z,24.83
2016-08-03T16:10:48.990Z,24.77
2016-08-03T16:10:58.995Z,24.71
2016-08-03T16:11:08.993Z,24.69
2016-08-03T16:11:18.985Z,24.68
2016-08-03T16:11:28.986Z,24.49
2016-08-03T16:11:38.979Z,24.49
2016-08-03T16:11:48.975Z,24.58
2016-08-03T16:11:58.248Z,24.55
2016-08-03T16:12:08.971Z,24.52
2016-08-03T16:12:18.977Z,24.47
2016-08-03T16:12:28.968Z,24.55
2016-08-03T16:12:38.250Z,24.46
2016-08-03T16:12:48.965Z,24.43
2016-08-03T16:12:58.967Z,24.43
2016-08-03T16:13:08.229Z,24.39
2016-08-03T16:13:18.958Z,24.46
2016-08-03T16:13:28.953Z,24.45
2016-08-03T16:13:38.954Z,24.39
2016-08-03T16:13:48.959Z,24.34
2016-08-03T16:13:58.947Z,24.37
2016-08-03T16:14:08.947Z,24.32
2016-08-03T16:14:18.944Z,24.4
2016-08-03T16:14:28.943Z,24.42
2016-08-03T16:14:38.941Z,24.42
2016-08-03T16:14:48.937Z,24.34
2016-08-03T16:14:58.936Z,24.42
2016-08-03T16:15:08.932Z,24.4
2016-08-03T16:15:18.929Z,24.42
2016-08-03T16:15:28.931Z,24.34
2016-08-03T16:15:38.932Z,24.35
2016-08-03T16:15:48.924Z,24.43
2016-08-03T16:15:58.919Z,24.4
2016-08-03T16:16:08.920Z,24.35
2016-08-03T16:16:18.918Z,24.42
2016-08-03T16:16:28.942Z,24.42
2016-08-03T16:16:38.914Z,24.35
2016-08-03T16:16:48.910Z,24.37
2016-08-03T16:16:58.918Z,24.34
2016-08-03T16:17:08.909Z,24.37
2016-08-03T16:17:18.909Z,24.39
2016-08-03T16:17:38.905Z,24.35
2016-08-03T16:17:48.901Z,24.39
2016-08-03T16:17:58.895Z,24.42
2016-08-03T16:18:08.897Z,24.35
2016-08-03T16:18:18.896Z,24.42
2016-08-03T16:18:28.891Z,24.46
2016-08-03T16:18:38.891Z,24.39
2016-08-03T16:18:48.159Z,24.42
2016-08-03T16:18:58.887Z,24.32
2016-08-03T16:19:08.887Z,24.43
2016-08-03T16:19:18.881Z,24.4
2016-08-03T16:19:28.880Z,24.39
2016-08-03T16:19:38.883Z,24.39
2016-08-03T16:19:48.875Z,24.42
2016-08-03T16:19:58.872Z,24.37
2016-08-03T16:20:08.870Z,24.37
2016-08-03T16:20:18.969Z,24.35
2016-08-03T16:20:28.866Z,24.35
2016-08-03T16:20:38.864Z,24.37
2016-08-03T16:20:48.863Z,24.4
2016-08-03T16:20:58.863Z,24.52
2016-08-03T16:21:08.869Z,24.4
2016-08-03T16:21:18.856Z,24.42
2016-08-03T16:21:28.945Z,24.3
2016-08-03T16:21:38.854Z,24.31
2016-08-03T16:21:48.856Z,24.34
2016-08-03T16:21:58.851Z,24.42
2016-08-03T16:22:08.848Z,24.35
2016-08-03T16:22:18.842Z,24.34
2016-08-03T16:22:28.842Z,24.4
2016-08-03T16:22:38.843Z,24.34
2016-08-03T16:22:48.842Z,24.43
2016-08-03T16:22:58.838Z,24.32
2016-08-03T16:23:08.843Z,24.35
2016-08-03T16:23:18.834Z,24.3
2016-08-03T16:23:28.832Z,24.34
2016-08-03T16:23:38.828Z,24.35
2016-08-03T16:23:48.102Z,24.39
2016-08-03T16:23:58.826Z,24.37
2016-08-03T16:24:08.822Z,24.31
2016-08-03T16:24:18.822Z,24.32
2016-08-03T16:24:28.821Z,24.28
2016-08-03T16:24:38.821Z,24.32
2016-08-03T16:24:48.817Z,24.31
2016-08-03T16:24:58.814Z,24.4
2016-08-03T16:25:08.814Z,24.42
2016-08-03T16:25:18.811Z,24.42
2016-08-03T16:25:28.812Z,24.42
2016-08-03T16:25:38.813Z,24.4
2016-08-03T16:25:48.803Z,24.37
2016-08-03T16:25:58.802Z,24.3
2016-08-03T16:26:08.802Z,24.42
2016-08-03T16:26:18.798Z,24.42
2016-08-03T16:26:28.795Z,24.4
2016-08-03T16:26:56.423Z,24.31
2016-08-03T16:27:06.415Z,24.42
2016-08-03T16:27:16.414Z,24.4
2016-08-03T16:27:26.412Z,24.39
2016-08-03T16:27:36.477Z,24.35
2016-08-03T16:27:46.406Z,24.35
2016-08-03T16:27:56.411Z,24.35
2016-08-03T16:28:06.403Z,24.42
2016-08-03T16:28:16.403Z,24.42
2016-08-03T16:28:25.671Z,24.32
2016-08-03T16:28:36.404Z,24.39
2016-08-03T16:28:46.397Z,24.31
2016-08-03T16:28:56.395Z,24.32
2016-08-03T16:29:06.395Z,24.35
2016-08-03T16:29:16.394Z,24.4
2016-08-03T16:29:26.438Z,24.35
2016-08-03T16:29:36.387Z,24.31
2016-08-03T16:29:46.391Z,24.39
2016-08-03T16:29:56.390Z,24.37
2016-08-03T16:30:06.384Z,24.31
2016-08-03T16:30:16.393Z,24.34
2016-08-03T16:30:26.379Z,24.4
2016-08-03T16:30:36.378Z,24.34
2016-08-03T16:30:45.649Z,24.45
2016-08-03T16:30:56.373Z,24.39
2016-08-03T16:31:06.368Z,24.34
2016-08-03T16:31:16.368Z,24.39
2016-08-03T16:31:26.401Z,24.4
2016-08-03T16:31:36.364Z,24.37
2016-08-03T16:31:46.366Z,24.37
2016-08-03T16:31:55.633Z,24.42
2016-08-03T16:32:06.363Z,24.35
2016-08-03T16:32:16.358Z,24.4
2016-08-03T16:32:36.360Z,24.42
2016-08-03T16:32:46.367Z,24.42
2016-08-03T16:32:56.348Z,24.37
2016-08-03T16:33:06.356Z,24.34
2016-08-03T16:33:16.347Z,24.4
2016-08-03T16:33:26.343Z,24.43
2016-08-03T16:33:36.344Z,24.34
2016-08-03T16:33:46.342Z,24.34
2016-08-03T16:33:56.339Z,24.43
2016-08-03T16:34:05.613Z,24.37
2016-08-03T16:34:16.334Z,24.35
2016-08-03T16:34:26.331Z,24.45
2016-08-03T16:34:36.330Z,24.39
2016-08-03T16:34:46.328Z,24.42
2016-08-03T16:34:56.329Z,24.46
2016-08-03T16:35:06.327Z,24.5
2016-08-03T16:35:16.378Z,24.52
2016-08-03T16:35:26.324Z,24.46
2016-08-03T16:35:36.323Z,24.45
2016-08-03T16:35:46.316Z,24.53
2016-08-03T16:35:56.314Z,24.5
2016-08-03T16:36:06.319Z,24.5
2016-08-03T16:36:16.310Z,24.5
2016-08-03T16:36:26.312Z,24.5
2016-08-03T16:36:36.306Z,24.47
2016-08-03T16:36:46.305Z,24.46
2016-08-03T16:36:56.304Z,24.47
2016-08-03T16:37:06.304Z,24.5
2016-08-03T16:37:16.300Z,24.55
2016-08-03T16:37:26.299Z,24.6
2016-08-03T16:37:36.294Z,24.5
2016-08-03T16:37:46.292Z,24.47
2016-08-03T16:37:56.292Z,24.53
2016-08-03T16:38:06.291Z,24.45
2016-08-03T16:38:16.288Z,24.45
2016-08-03T16:38:26.295Z,24.49
2016-08-03T16:38:36.290Z,24.42
2016-08-03T16:38:46.284Z,24.43
2016-08-03T16:38:56.281Z,24.35
2016-08-03T16:39:06.276Z,24.4
2016-08-03T16:39:16.281Z,24.4
2016-08-03T16:39:26.276Z,24.37
2016-08-03T16:39:36.271Z,24.4
2016-08-03T16:39:46.272Z,24.39
2016-08-03T16:39:56.274Z,24.42
2016-08-03T16:40:06.267Z,24.39
2016-08-03T16:40:16.265Z,24.4
2016-08-03T16:40:26.261Z,24.37
2016-08-03T16:40:36.261Z,24.35
2016-08-03T16:40:46.261Z,24.34
2016-08-03T16:40:56.258Z,24.37
2016-08-03T16:41:06.257Z,24.34
2016-08-03T16:41:16.265Z,24.34
2016-08-03T16:41:26.250Z,24.32
2016-08-03T16:41:36.247Z,24.34
2016-08-03T16:41:46.249Z,24.34
2016-08-03T16:41:56.248Z,24.34
2016-08-03T16:42:06.246Z,24.21
2016-08-03T16:42:16.254Z,24.34
2016-08-03T16:42:26.245Z,24.32
2016-08-03T16:42:36.239Z,24.35
2016-08-03T16:42:46.237Z,24.21
2016-08-03T16:42:56.233Z,24.31
2016-08-03T16:43:06.233Z,24.27
2016-08-03T16:43:16.233Z,24.22
2016-08-03T16:43:26.232Z,24.34
2016-08-03T16:43:35.500Z,24.37
2016-08-03T16:43:46.229Z,24.34
2016-08-03T16:43:56.225Z,24.35
2016-08-03T16:44:06.222Z,24.32
2016-08-03T16:44:16.219Z,24.22
2016-08-03T16:44:26.219Z,24.22
2016-08-03T16:44:35.485Z,24.32
2016-08-03T16:44:46.212Z,24.34
2016-08-03T16:44:56.211Z,24.22
2016-08-03T16:45:06.211Z,24.3
2016-08-03T16:45:16.208Z,24.31
2016-08-03T16:45:26.209Z,24.32
2016-08-03T16:45:36.259Z,24.2
2016-08-03T16:45:46.200Z,24.31
2016-08-03T16:45:56.205Z,24.2
2016-08-03T16:46:06.202Z,24.32
2016-08-03T16:46:16.197Z,24.21
2016-08-03T16:46:26.203Z,24.35
2016-08-03T16:46:36.195Z,24.31
2016-08-03T16:46:46.189Z,24.21
2016-08-03T16:46:56.189Z,24.39
2016-08-03T16:47:06.205Z,24.31
2016-08-03T16:47:16.186Z,24.21
2016-08-03T16:47:26.182Z,24.24
2016-08-03T16:47:46.180Z,24.28
2016-08-03T16:47:56.181Z,24.27
2016-08-03T16:48:06.175Z,24.24
2016-08-03T16:48:16.173Z,24.27
2016-08-03T16:48:26.173Z,24.21
2016-08-03T16:48:36.173Z,24.27
2016-08-03T16:48:46.167Z,24.27
2016-08-03T16:48:56.167Z,24.2
2016-08-03T16:49:06.166Z,24.25
2016-08-03T16:49:15.435Z,24.25
2016-08-03T16:49:26.216Z,24.27
2016-08-03T16:49:36.162Z,24.25
2016-08-03T16:49:46.162Z,24.27
2016-08-03T16:49:56.162Z,24.24
2016-08-03T16:50:06.155Z,24.2
2016-08-03T16:50:16.152Z,24.28
2016-08-03T16:50:25.421Z,24.25
2016-08-03T16:50:36.143Z,24.22
2016-08-03T16:50:46.145Z,24.27
2016-08-03T16:50:56.146Z,24.25
2016-08-03T16:51:06.141Z,24.32
2016-08-03T16:51:16.151Z,24.25
2016-08-03T16:51:26.146Z,24.32
2016-08-03T16:51:36.141Z,24.24
2016-08-03T16:51:46.136Z,24.27
2016-08-03T16:51:56.133Z,24.27
2016-08-03T16:52:06.132Z,24.32
2016-08-03T16:52:16.130Z,24.25
2016-08-03T16:52:26.130Z,24.27
2016-08-03T16:52:36.127Z,24.27
2016-08-03T16:52:46.129Z,24.24
2016-08-03T16:52:56.124Z,24.22
2016-08-03T16:53:06.126Z,24.25
2016-08-03T16:53:16.121Z,24.28
2016-08-03T16:53:26.117Z,24.18
2016-08-03T16:53:36.114Z,24.28
2016-08-03T16:53:46.112Z,24.27
2016-08-03T16:53:56.110Z,24.25
2016-08-03T16:54:06.111Z,24.21
2016-08-03T16:54:16.107Z,24.28
2016-08-03T16:54:26.107Z,24.21
2016-08-03T16:54:36.103Z,24.25
2016-08-03T16:54:45.374Z,24.28
2016-08-03T16:54:56.100Z,24.28
2016-08-03T16:55:06.094Z,24.3
2016-08-03T16:55:16.098Z,24.2
2016-08-03T16:55:26.094Z,24.37
2016-08-03T16:55:36.089Z,24.35
2016-08-03T16:55:46.090Z,24.28
2016-08-03T16:55:56.088Z,24.22
2016-08-03T16:56:06.088Z,24.24
2016-08-03T16:56:16.084Z,24.25
2016-08-03T16:56:26.083Z,24.2
2016-08-03T16:56:36.079Z,24.3
2016-08-03T16:56:46.082Z,24.37
2016-08-03T16:56:55.344Z,24.28
2016-08-03T16:57:05.346Z,24.28
2016-08-03T16:57:16.075Z,24.24
2016-08-03T16:57:26.075Z,24.32
2016-08-03T16:57:36.070Z,24.27
2016-08-03T16:57:46.072Z,24.21
2016-08-03T16:57:56.068Z,24.27
2016-08-03T16:58:06.065Z,24.28
2016-08-03T16:58:16.062Z,24.3
2016-08-03T16:58:26.058Z,24.32
2016-08-03T16:58:36.056Z,24.21
2016-08-03T16:58:46.056Z,24.22
2016-08-03T16:58:56.053Z,24.27
2016-08-03T16:59:06.051Z,24.2
2016-08-03T16:59:16.048Z,24.3
2016-08-03T16:59:26.048Z,24.18
2016-08-03T16:59:36.053Z,24.21
2016-08-03T16:59:46.044Z,24.28
2016-08-03T16:59:56.049Z,24.27
2016-08-03T17:00:06.039Z,24.28
2016-08-03T17:00:16.041Z,24.34
2016-08-03T17:00:26.037Z,24.25
2016-08-03T17:00:36.032Z,24.28
2016-08-03T17:00:46.032Z,24.25
2016-08-03T17:00:56.033Z,24.27
2016-08-03T17:01:06.030Z,24.28
2016-08-03T17:01:16.027Z,24.25
2016-08-03T17:01:26.027Z,24.37
2016-08-03T17:01:36.024Z,24.28
2016-08-03T17:01:46.025Z,24.31
2016-08-03T17:01:56.025Z,24.21
2016-08-03T17:02:06.020Z,24.27
2016-08-03T17:02:16.014Z,24.27
2016-08-03T17:02:26.015Z,24.35
2016-08-03T17:02:46.010Z,24.3
2016-08-03T17:02:56.011Z,24.3
2016-08-03T17:03:06.003Z,24.28
2016-08-03T17:03:16.004Z,24.25
2016-08-03T17:03:26.004Z,24.3
2016-08-03T17:03:36.003Z,24.28
2016-08-03T17:03:45.996Z,24.24
2016-08-03T17:03:55.993Z,24.28
2016-08-03T17:04:06.045Z,24.31
2016-08-03T17:04:15.992Z,24.25
2016-08-03T17:04:25.995Z,24.3
2016-08-03T17:04:35.987Z,24.3
2016-08-03T17:04:45.996Z,24.28
2016-08-03T17:04:55.985Z,24.27
2016-08-03T17:05:05.983Z,24.3
2016-08-03T17:05:16.030Z,24.34
2016-08-03T17:05:25.979Z,24.3
2016-08-03T17:05:35.977Z,24.28
2016-08-03T17:05:45.977Z,24.2
2016-08-03T17:05:55.973Z,24.22
2016-08-03T17:06:05.972Z,24.27
2016-08-03T17:06:15.968Z,24.37
2016-08-03T17:06:25.974Z,24.24
2016-08-03T17:06:35.242Z,24.25
2016-08-03T17:06:45.966Z,24.25
2016-08-03T17:06:55.963Z,24.28
2016-08-03T17:07:05.966Z,24.28
2016-08-03T17:07:15.958Z,24.2
2016-08-03T17:07:25.959Z,24.25
2016-08-03T17:07:35.956Z,24.25
2016-08-03T17:07:45.951Z,24.27
2016-08-03T17:07:55.952Z,24.32
2016-08-03T17:08:05.951Z,24.28
2016-08-03T17:08:15.949Z,24.31
2016-08-03T17:08:25.958Z,24.25
2016-08-03T17:08:35.943Z,24.3
2016-08-03T17:08:45.942Z,24.27
2016-08-03T17:08:55.938Z,24.2
2016-08-03T17:09:05.939Z,24.27
2016-08-03T17:09:15.938Z,24.3
2016-08-03T17:09:25.934Z,24.22
2016-08-03T17:09:35.936Z,24.24
2016-08-03T17:09:45.934Z,24.24
2016-08-03T17:09:55.931Z,24.27
2016-08-03T17:10:05.935Z,24.32
2016-08-03T17:10:15.926Z,24.21
2016-08-03T17:10:25.924Z,24.22
2016-08-03T17:10:35.916Z,24.28
2016-08-03T17:10:45.920Z,24.28
2016-08-03T17:10:55.924Z,24.22
2016-08-03T17:11:05.918Z,24.21
2016-08-03T17:11:15.915Z,24.22
2016-08-03T17:11:25.917Z,24.2
2016-08-03T17:11:35.912Z,24.28
2016-08-03T17:11:45.909Z,24.24
2016-08-03T17:11:55.906Z,24.27
2016-08-03T17:12:05.904Z,24.2
2016-08-03T17:12:15.901Z,24.27
2016-08-03T17:12:25.902Z,24.25
2016-08-03T17:12:35.900Z,24.24
2016-08-03T17:12:45.899Z,24.27
2016-08-03T17:12:55.895Z,24.25
2016-08-03T17:13:05.895Z,24.21
2016-08-03T17:13:15.891Z,24.21
2016-08-03T17:13:25.896Z,24.21
2016-08-03T17:13:35.888Z,24.13
2016-08-03T17:13:45.885Z,24.24
2016-08-03T17:13:55.883Z,24.22
2016-08-03T17:14:05.883Z,24.24
2016-08-03T17:14:15.881Z,24.18
2016-08-03T17:14:25.879Z,24.25
2016-08-03T17:14:35.875Z,24.12
2016-08-03T17:14:45.873Z,24.13
2016-08-03T17:14:55.873Z,24.25
2016-08-03T17:15:05.870Z,24.24
2016-08-03T17:15:15.868Z,24.12
2016-08-03T17:15:25.866Z,24.22
2016-08-03T17:15:35.867Z,24.15
2016-08-03T17:15:45.865Z,24.24
2016-08-03T17:15:55.869Z,24.27
2016-08-03T17:16:05.860Z,24.13
2016-08-03T17:16:15.859Z,24.13
2016-08-03T17:16:25.910Z,24.15
2016-08-03T17:16:35.850Z,24.18
2016-08-03T17:16:45.855Z,24.13
2016-08-03T17:16:55.851Z,24.12
2016-08-03T17:17:05.848Z,24.2
2016-08-03T17:17:15.844Z,24.22
2016-08-03T17:17:25.845Z,24.2
2016-08-03T17:17:45.126Z,24.15
2016-08-03T17:17:55.836Z,24.22
2016-08-03T17:18:05.842Z,24.13
2016-08-03T17:18:15.833Z,24.21
2016-08-03T17:18:25.834Z,24.13
2016-08-03T17:18:35.887Z,24.16
2016-08-03T17:18:45.831Z,24.18
2016-08-03T17:18:55.830Z,24.13
2016-08-03T17:19:05.826Z,24.13
2016-08-03T17:19:15.825Z,24.16
2016-08-03T17:19:25.824Z,24.2
2016-08-03T17:19:35.822Z,24.18
2016-08-03T17:19:45.818Z,24.15
2016-08-03T17:19:55.814Z,24.1
2016-08-03T17:20:05.815Z,24.16
2016-08-03T17:20:15.813Z,24.16
2016-08-03T17:20:25.815Z,24.13
2016-08-03T17:20:35.813Z,24.27
2016-08-03T17:20:45.809Z,24.12
2016-08-03T17:20:55.809Z,24.22
2016-08-03T17:21:05.801Z,24.18
2016-08-03T17:21:15.800Z,24.16
2016-08-03T17:21:25.799Z,24.09
2016-08-03T17:21:35.794Z,24.22
2016-08-03T17:21:45.796Z,24.13
2016-08-03T17:21:55.793Z,24.16
2016-08-03T17:22:05.792Z,24.1
2016-08-03T17:22:15.788Z,24.13
2016-08-03T17:22:25.792Z,24.22
2016-08-03T17:22:35.787Z,24.12
2016-08-03T17:22:45.782Z,24.1
2016-08-03T17:22:55.782Z,24.16
2016-08-03T17:23:05.781Z,24.16
2016-08-03T17:23:15.779Z,24.16
2016-08-03T17:23:25.774Z,24.1
2016-08-03T17:23:35.776Z,24.13
2016-08-03T17:23:45.773Z,24.13
2016-08-03T17:23:55.771Z,24.12
2016-08-03T17:24:05.768Z,24.13
2016-08-03T17:24:15.768Z,24.13
2016-08-03T17:24:25.767Z,24.2
2016-08-03T17:24:35.764Z,24.18
2016-08-03T17:24:45.763Z,24.13
2016-08-03T17:24:55.756Z,24.13
2016-08-03T17:25:05.761Z,24.22
2016-08-03T17:25:15.757Z,24.16
2016-08-03T17:25:25.760Z,24.13
2016-08-03T17:25:35.754Z,24.1
2016-08-03T17:25:45.749Z,24.13
2016-08-03T17:25:55.749Z,24.21
2016-08-03T17:26:05.748Z,24.21
2016-08-03T17:26:15.745Z,24.13
2016-08-03T17:26:25.742Z,24.13
2016-08-03T17:26:35.747Z,24.13
2016-08-03T17:26:45.740Z,24.13
2016-08-03T17:26:55.743Z,24.21
2016-08-03T17:27:05.736Z,24.13
2016-08-03T17:27:15.732Z,24.16
2016-08-03T17:27:25.730Z,24.21
2016-08-03T17:27:35.731Z,24.12
2016-08-03T17:27:45.726Z,24.13
2016-08-03T17:27:55.724Z,24.18
2016-08-03T17:28:05.726Z,24.18
2016-08-03T17:28:15.722Z,24.16
2016-08-03T17:28:25.720Z,24.25
2016-08-03T17:28:35.718Z,24.13
2016-08-03T17:28:45.716Z,24.21
2016-08-03T17:28:55.716Z,24.16
2016-08-03T17:29:05.715Z,24.2
2016-08-03T17:29:15.761Z,24.27
2016-08-03T17:29:25.707Z,24.22
2016-08-03T17:29:35.706Z,24.25
2016-08-03T17:29:45.704Z,24.25
2016-08-03T17:29:55.701Z,24.3
2016-08-03T17:30:04.969Z,24.28
2016-08-03T17:30:15.699Z,24.34
2016-08-03T17:30:25.698Z,24.22
2016-08-03T17:30:35.696Z,24.31
2016-08-03T17:30:45.695Z,24.32
2016-08-03T17:30:55.694Z,24.31
2016-08-03T17:31:05.688Z,24.32
2016-08-03T17:31:15.690Z,24.27
2016-08-03T17:31:25.687Z,24.28
2016-08-03T17:31:35.684Z,24.28
2016-08-03T17:31:45.687Z,24.27
2016-08-03T17:31:55.680Z,24.34
2016-08-03T17:32:05.678Z,24.28
2016-08-03T17:32:33.321Z,24.27
2016-08-03T17:32:53.316Z,24.34
2016-08-03T17:33:03.314Z,24.3
2016-08-03T17:33:13.314Z,24.34
2016-08-03T17:33:23.309Z,24.28
2016-08-03T17:33:33.314Z,24.37
2016-08-03T17:33:43.307Z,24.4
2016-08-03T17:33:53.305Z,24.3
2016-08-03T17:34:02.572Z,24.37
2016-08-03T17:34:13.307Z,24.3
2016-08-03T17:34:23.299Z,24.22
2016-08-03T17:34:33.303Z,24.22
2016-08-03T17:34:43.298Z,24.24
2016-08-03T17:34:53.295Z,24.21
2016-08-03T17:35:03.578Z,24.2
2016-08-03T17:35:13.289Z,24.4
2016-08-03T17:35:23.288Z,24.2
2016-08-03T17:35:33.294Z,24.32
2016-08-03T17:35:43.313Z,24.31
2016-08-03T17:35:53.286Z,24.24
2016-08-03T17:36:03.279Z,24.28
2016-08-03T17:36:13.279Z,24.27
2016-08-03T17:36:23.280Z,24.28
2016-08-03T17:36:33.274Z,24.22
2016-08-03T17:36:43.271Z,24.3
2016-08-03T17:36:53.271Z,24.27
2016-08-03T17:37:03.269Z,24.28
2016-08-03T17:37:13.268Z,24.25
2016-08-03T17:37:23.267Z,24.27
2016-08-03T17:37:33.268Z,24.27
2016-08-03T17:37:43.261Z,24.25
2016-08-03T17:37:53.259Z,24.28
2016-08-03T17:38:03.257Z,24.27
2016-08-03T17:38:13.255Z,24.25
2016-08-03T17:38:23.256Z,24.24
2016-08-03T17:38:33.253Z,24.25
2016-08-03T17:38:43.248Z,24.28
2016-08-03T17:38:53.248Z,24.28
2016-08-03T17:39:03.242Z,24.22
2016-08-03T17:39:13.246Z,24.24
2016-08-03T17:39:23.249Z,24.27
2016-08-03T17:39:33.250Z,24.28
2016-08-03T17:39:43.238Z,24.27
2016-08-03T17:39:53.239Z,24.27
2016-08-03T17:40:03.233Z,24.25
2016-08-03T17:40:13.234Z,24.24
2016-08-03T17:40:23.382Z,24.22
2016-08-03T17:40:33.227Z,24.24
2016-08-03T17:40:43.227Z,24.25
2016-08-03T17:40:53.224Z,24.27
2016-08-03T17:41:03.223Z,24.27
2016-08-03T17:41:12.497Z,24.32
2016-08-03T17:41:23.222Z,24.27
2016-08-03T17:41:33.220Z,24.27
2016-08-03T17:41:43.214Z,24.25
2016-08-03T17:41:53.218Z,24.2
2016-08-03T17:42:03.214Z,24.2
2016-08-03T17:42:12.481Z,24.25
2016-08-03T17:42:23.209Z,24.22
2016-08-03T17:42:32.494Z,24.21
2016-08-03T17:42:43.205Z,24.34
2016-08-03T17:42:53.201Z,24.21
2016-08-03T17:43:03.199Z,24.24
2016-08-03T17:43:13.202Z,24.22
2016-08-03T17:43:23.197Z,24.3
2016-08-03T17:43:33.198Z,24.27
2016-08-03T17:43:43.194Z,24.27
2016-08-03T17:43:53.195Z,24.34
2016-08-03T17:44:03.191Z,24.24
2016-08-03T17:44:13.189Z,24.21
2016-08-03T17:44:23.185Z,24.22
2016-08-03T17:44:32.457Z,24.2
2016-08-03T17:44:43.183Z,24.27
2016-08-03T17:44:53.178Z,24.22
2016-08-03T17:45:03.189Z,24.24
2016-08-03T17:45:13.184Z,24.22
2016-08-03T17:45:23.174Z,24.21
2016-08-03T17:45:33.181Z,24.28
2016-08-03T17:45:43.173Z,24.25
2016-08-03T17:45:53.168Z,24.22
2016-08-03T17:46:03.168Z,24.22
2016-08-03T17:46:13.236Z,24.3
2016-08-03T17:46:23.165Z,24.22
2016-08-03T17:46:33.212Z,24.16
2016-08-03T17:46:42.431Z,24.28
2016-08-03T17:46:53.160Z,24.25
2016-08-03T17:47:03.158Z,24.34
2016-08-03T17:47:13.151Z,24.25
2016-08-03T17:47:23.154Z,24.25
2016-08-03T17:47:33.149Z,24.34
2016-08-03T17:47:43.156Z,24.27
2016-08-03T17:48:03.248Z,24.32
2016-08-03T17:48:13.142Z,24.27
2016-08-03T17:48:23.140Z,24.35
2016-08-03T17:48:32.416Z,24.3
2016-08-03T17:48:43.137Z,24.3
2016-08-03T17:48:53.143Z,24.25
2016-08-03T17:49:03.135Z,24.27
2016-08-03T17:49:13.130Z,24.22
2016-08-03T17:49:23.127Z,24.28
2016-08-03T17:49:33.130Z,24.34
2016-08-03T17:49:43.174Z,24.28
2016-08-03T17:49:53.124Z,24.21
2016-08-03T17:50:03.123Z,24.34
2016-08-03T17:50:13.118Z,24.31
2016-08-03T17:50:23.116Z,24.3
2016-08-03T17:50:33.119Z,24.34
2016-08-03T17:50:43.118Z,24.27
2016-08-03T17:50:53.113Z,24.25
2016-08-03T17:51:03.108Z,24.3
2016-08-03T17:51:13.111Z,24.27
2016-08-03T17:51:23.104Z,24.24
2016-08-03T17:51:33.109Z,24.22
2016-08-03T17:51:43.103Z,24.3
2016-08-03T17:51:53.104Z,24.22
2016-08-03T17:52:03.099Z,24.22
2016-08-03T17:52:13.148Z,24.28
2016-08-03T17:52:23.093Z,24.24
2016-08-03T17:52:33.092Z,24.22
2016-08-03T17:52:43.092Z,24.22
2016-08-03T17:52:52.362Z,24.3
2016-08-03T17:53:03.087Z,24.21
2016-08-03T17:53:13.168Z,24.22
2016-08-03T17:53:22.470Z,24.22
2016-08-03T17:53:33.083Z,24.28
2016-08-03T17:53:43.093Z,24.25
2016-08-03T17:53:53.081Z,24.21
2016-08-03T17:54:02.362Z,24.2
2016-08-03T17:54:13.072Z,24.25
2016-08-03T17:54:23.083Z,24.2
2016-08-03T17:54:32.384Z,24.3
2016-08-03T17:54:42.439Z,24.24
2016-08-03T17:54:52.345Z,24.25
2016-08-03T17:55:02.342Z,24.27
2016-08-03T17:55:13.078Z,24.25
2016-08-03T17:55:23.075Z,24.24
2016-08-03T17:55:33.059Z,24.21
2016-08-03T17:55:43.058Z,24.21
2016-08-03T17:55:53.054Z,24.2
2016-08-03T17:56:03.051Z,24.16
2016-08-03T17:56:13.110Z,24.28
2016-08-03T17:56:23.051Z,24.18
2016-08-03T17:56:33.082Z,24.21
2016-08-03T17:56:43.060Z,24.31
2016-08-03T17:56:53.044Z,24.28
2016-08-03T17:57:03.042Z,24.25
2016-08-03T17:57:13.040Z,24.28
2016-08-03T17:57:23.087Z,24.2
2016-08-03T17:57:33.036Z,24.35
2016-08-03T17:57:43.048Z,24.25
2016-08-03T17:57:53.041Z,24.3
2016-08-03T17:58:03.042Z,24.27
2016-08-03T17:58:13.028Z,24.27
2016-08-03T17:58:23.037Z,24.3
2016-08-03T17:58:33.026Z,24.2
2016-08-03T17:58:43.026Z,24.35
2016-08-03T17:58:53.019Z,24.2
2016-08-03T17:59:03.020Z,24.25
2016-08-03T17:59:13.018Z,24.28
2016-08-03T17:59:22.305Z,24.25
2016-08-03T17:59:32.284Z,24.25
2016-08-03T17:59:42.301Z,24.21
2016-08-03T17:59:52.284Z,24.25
2016-08-03T18:00:03.014Z,24.21
2016-08-03T18:00:13.014Z,24.22
2016-08-03T18:00:23.019Z,24.28
2016-08-03T18:00:33.006Z,24.25
2016-08-03T18:00:43.003Z,24.28
2016-08-03T18:00:52.267Z,24.27
2016-08-03T18:01:03.007Z,24.25
2016-08-03T18:01:12.571Z,24.31
2016-08-03T18:01:22.998Z,24.3
2016-08-03T18:01:33.000Z,24.25
2016-08-03T18:01:42.997Z,24.21
2016-08-03T18:01:52.989Z,24.35
2016-08-03T18:02:02.985Z,24.25
2016-08-03T18:02:12.253Z,24.27
2016-08-03T18:02:22.981Z,24.4
2016-08-03T18:02:32.315Z,24.31
2016-08-03T18:02:42.977Z,24.28
2016-08-03T18:03:02.259Z,24.21
2016-08-03T18:03:12.976Z,24.37
2016-08-03T18:03:22.992Z,24.24
2016-08-03T18:03:32.975Z,24.21
2016-08-03T18:03:42.965Z,24.27
2016-08-03T18:03:52.263Z,24.27
2016-08-03T18:04:02.963Z,24.27
2016-08-03T18:04:12.959Z,24.28
2016-08-03T18:04:23.007Z,24.28
2016-08-03T18:04:32.248Z,24.25
2016-08-03T18:04:42.964Z,24.28
2016-08-03T18:04:53.015Z,24.24
2016-08-03T18:05:02.948Z,24.3
2016-08-03T18:05:12.961Z,24.18
2016-08-03T18:05:22.946Z,24.25
2016-08-03T18:05:32.943Z,24.21
2016-08-03T18:05:42.942Z,24.35
2016-08-03T18:05:52.938Z,24.3
2016-08-03T18:06:02.937Z,24.15
2016-08-03T18:06:12.934Z,24.28
2016-08-03T18:06:23.155Z,24.37
2016-08-03T18:06:32.942Z,24.35
2016-08-03T18:06:42.937Z,24.27
2016-08-03T18:06:52.939Z,24.24
2016-08-03T18:07:02.986Z,24.25
2016-08-03T18:07:12.925Z,24.25
2016-08-03T18:07:22.979Z,24.3
2016-08-03T18:07:32.193Z,24.2
2016-08-03T18:07:42.272Z,24.18
2016-08-03T18:07:52.918Z,24.35
2016-08-03T18:08:02.197Z,24.35
2016-08-03T18:08:12.214Z,24.2
2016-08-03T18:08:22.924Z,24.34
2016-08-03T18:08:32.914Z,24.21
2016-08-03T18:08:42.201Z,24.35
2016-08-03T18:08:52.908Z,24.24
2016-08-03T18:09:02.911Z,24.18
2016-08-03T18:09:12.909Z,24.25
2016-08-03T18:09:22.898Z,24.2
2016-08-03T18:09:32.187Z,24.18
2016-08-03T18:09:42.905Z,24.35
2016-08-03T18:09:52.895Z,24.32
2016-08-03T18:10:02.892Z,24.28
2016-08-03T18:10:12.890Z,24.25
2016-08-03T18:10:22.892Z,24.15
2016-08-03T18:10:32.888Z,24.24
2016-08-03T18:10:42.889Z,24.2
2016-08-03T18:10:52.887Z,24.18
2016-08-03T18:11:02.880Z,24.35
2016-08-03T18:11:12.877Z,24.3
2016-08-03T18:11:22.876Z,24.34
2016-08-03T18:11:32.877Z,24.28
2016-08-03T18:11:42.871Z,24.3
2016-08-03T18:11:52.158Z,24.28
2016-08-03T18:12:02.164Z,24.22
2016-08-03T18:12:12.164Z,24.32
2016-08-03T18:12:22.141Z,24.21
2016-08-03T18:12:32.863Z,24.37
2016-08-03T18:12:42.863Z,24.37
2016-08-03T18:12:52.861Z,24.3
2016-08-03T18:13:02.864Z,24.24
2016-08-03T18:13:12.859Z,24.31
2016-08-03T18:13:22.853Z,24.32
2016-08-03T18:13:32.850Z,24.31
2016-08-03T18:13:42.851Z,24.16
2016-08-03T18:13:52.848Z,24.32
2016-08-03T18:14:02.849Z,24.34
2016-08-03T18:14:12.847Z,24.28
2016-08-03T18:14:22.852Z,24.24
2016-08-03T18:14:32.840Z,24.35
2016-08-03T18:14:42.841Z,24.21
2016-08-03T18:14:52.837Z,24.37
2016-08-03T18:15:02.835Z,24.31
2016-08-03T18:15:12.833Z,24.24